sensor_id;sensor_type;location;lat;lon;timestamp;P1;durP1;ratioP1;P2;durP2;ratioP2
11173;SDS011;5643;50.856;12.088;2023-01-26T01:14:27;12.63;;;11.33;;
11173;SDS011;5643;50.856;12.088;2023-01-26T01:16:56;12.77;;;11.47;;
11173;SDS011;5643;50.856;12.088;2023-01-26T01:19:26;13.43;;;12.03;;
11173;SDS011;5643;50.856;12.088;2023-01-26T01:21:57;14.80;;;13.23;;
11173;SDS011;5643;50.856;12.088;2023-01-26T01:24:29;15.13;;;13.53;;
11173;SDS011;5643;50.856;12.088;2023-01-26T01:27:10;13.23;;;11.83;;
11173;SDS011;5643;50.856;12.088;2023-01-26T01:29:43;12.27;;;10.87;;
11173;SDS011;5643;50.856;12.088;2023-01-26T01:32:12;12.17;;;10.97;;
11173;SDS011;5643;50.856;12.088;2023-01-26T01:34:45;14.93;;;13.10;;
11173;SDS011;5643;50.856;12.088;2023-01-26T01:37:15;15.13;;;13.53;;
11173;SDS011;5643;50.856;12.088;2023-01-26T01:39:45;15.03;;;13.43;;
11173;SDS011;5643;50.856;12.088;2023-01-26T01:42:29;13.27;;;11.87;;
11173;SDS011;5643;50.856;12.088;2023-01-26T01:47:51;15.70;;;14.00;;
11173;SDS011;5643;50.856;12.088;2023-01-26T01:50:23;14.77;;;13.27;;
11173;SDS011;5643;50.856;12.088;2023-01-26T01:52:53;14.93;;;13.33;;
11173;SDS011;5643;50.856;12.088;2023-01-26T01:55:24;14.27;;;12.40;;
11173;SDS011;5643;50.856;12.088;2023-01-26T01:57:56;12.57;;;11.27;;
11173;SDS011;5643;50.856;12.088;2023-01-26T02:00:27;11.87;;;10.67;;
11173;SDS011;5643;50.856;12.088;2023-01-26T02:03:11;11.30;;;10.10;;
11173;SDS011;5643;50.856;12.088;2023-01-26T02:05:49;11.50;;;10.30;;
11173;SDS011;5643;50.856;12.088;2023-01-26T02:08:26;10.73;;;9.63;;
11173;SDS011;5643;50.856;12.088;2023-01-26T02:11:03;11.30;;;10.10;;
11173;SDS011;5643;50.856;12.088;2023-01-26T02:13:41;11.70;;;10.50;;
11173;SDS011;5643;50.856;12.088;2023-01-26T02:16:14;12.23;;;10.60;;
11173;SDS011;5643;50.856;12.088;2023-01-26T02:18:51;13.10;;;11.70;;
11173;SDS011;5643;50.856;12.088;2023-01-26T02:21:25;12.30;;;11.00;;
11173;SDS011;5643;50.856;12.088;2023-01-26T02:24:16;12.63;;;10.67;;
11173;SDS011;5643;50.856;12.088;2023-01-26T02:27:12;12.73;;;11.43;;
11173;SDS011;5643;50.856;12.088;2023-01-26T02:30:01;11.60;;;10.40;;
11173;SDS011;5643;50.856;12.088;2023-01-26T02:32:51;11.63;;;10.43;;
11173;SDS011;5643;50.856;12.088;2023-01-26T02:35:40;11.23;;;10.13;;
11173;SDS011;5643;50.856;12.088;2023-01-26T02:38:18;13.47;;;12.07;;
11173;SDS011;5643;50.856;12.088;2023-01-26T02:40:59;13.03;;;11.63;;
11173;SDS011;5643;50.856;12.088;2023-01-26T02:43:52;12.77;;;11.13;;
11173;SDS011;5643;50.856;12.088;2023-01-26T02:46:37;15.10;;;13.20;;
11173;SDS011;5643;50.856;12.088;2023-01-26T02:49:26;15.60;;;13.73;;
11173;SDS011;5643;50.856;12.088;2023-01-26T02:52:45;16.43;;;14.53;;
11173;SDS011;5643;50.856;12.088;2023-01-26T02:55:34;16.97;;;14.03;;
11173;SDS011;5643;50.856;12.088;2023-01-26T02:58:03;14.53;;;12.60;;
11173;SDS011;5643;50.856;12.088;2023-01-26T03:00:36;15.30;;;13.50;;
11173;SDS011;5643;50.856;12.088;2023-01-26T03:03:10;15.63;;;13.37;;
11173;SDS011;5643;50.856;12.088;2023-01-26T03:05:40;14.43;;;12.73;;
11173;SDS011;5643;50.856;12.088;2023-01-26T03:08:09;13.43;;;11.73;;
11173;SDS011;5643;50.856;12.088;2023-01-26T03:10:39;14.63;;;12.50;;
11173;SDS011;5643;50.856;12.088;2023-01-26T03:13:08;12.53;;;10.80;;
11173;SDS011;5643;50.856;12.088;2023-01-26T03:15:42;12.07;;;10.67;;
11173;SDS011;5643;50.856;12.088;2023-01-26T03:18:17;12.77;;;11.40;;
11173;SDS011;5643;50.856;12.088;2023-01-26T03:20:58;13.97;;;12.43;;
11173;SDS011;5643;50.856;12.088;2023-01-26T03:23:43;14.10;;;12.50;;
11173;SDS011;5643;50.856;12.088;2023-01-26T03:26:28;15.63;;;13.07;;
11173;SDS011;5643;50.856;12.088;2023-01-26T03:29:13;14.73;;;12.80;;
11173;SDS011;5643;50.856;12.088;2023-01-26T03:31:46;13.43;;;11.63;;
11173;SDS011;5643;50.856;12.088;2023-01-26T03:34:15;12.43;;;11.13;;
11173;SDS011;5643;50.856;12.088;2023-01-26T03:36:45;13.17;;;11.67;;
11173;SDS011;5643;50.856;12.088;2023-01-26T03:39:14;12.40;;;10.67;;
11173;SDS011;5643;50.856;12.088;2023-01-26T03:41:55;11.57;;;10.37;;
11173;SDS011;5643;50.856;12.088;2023-01-26T03:44:41;12.93;;;10.97;;
11173;SDS011;5643;50.856;12.088;2023-01-26T03:47:36;11.33;;;9.73;;
11173;SDS011;5643;50.856;12.088;2023-01-26T03:50:20;10.97;;;9.73;;
11173;SDS011;5643;50.856;12.088;2023-01-26T03:53:13;10.57;;;9.47;;
11173;SDS011;5643;50.856;12.088;2023-01-26T03:55:58;10.90;;;9.77;;
11173;SDS011;5643;50.856;12.088;2023-01-26T03:58:43;11.43;;;10.17;;
11173;SDS011;5643;50.856;12.088;2023-01-26T04:01:12;10.90;;;9.63;;
11173;SDS011;5643;50.856;12.088;2023-01-26T04:03:47;11.47;;;10.03;;
11173;SDS011;5643;50.856;12.088;2023-01-26T04:06:32;11.27;;;10.07;;
11173;SDS011;5643;50.856;12.088;2023-01-26T04:09:17;11.63;;;10.17;;
11173;SDS011;5643;50.856;12.088;2023-01-26T04:11:46;11.27;;;10.07;;
11173;SDS011;5643;50.856;12.088;2023-01-26T04:14:15;13.00;;;10.80;;
11173;SDS011;5643;50.856;12.088;2023-01-26T06:19:14;22.13;;;16.10;;
11173;SDS011;5643;50.856;12.088;2023-01-26T06:21:44;22.80;;;16.80;;
11173;SDS011;5643;50.856;12.088;2023-01-26T06:24:13;23.20;;;16.80;;
11173;SDS011;5643;50.856;12.088;2023-01-26T06:26:42;22.07;;;16.70;;
11173;SDS011;5643;50.856;12.088;2023-01-26T06:29:11;21.97;;;15.77;;
11173;SDS011;5643;50.856;12.088;2023-01-26T06:31:40;19.03;;;14.20;;
11173;SDS011;5643;50.856;12.088;2023-01-26T06:34:09;19.63;;;14.73;;
11173;SDS011;5643;50.856;12.088;2023-01-26T06:36:47;17.83;;;13.53;;
11173;SDS011;5643;50.856;12.088;2023-01-26T06:39:16;18.10;;;13.13;;
11173;SDS011;5643;50.856;12.088;2023-01-26T06:41:45;17.33;;;13.00;;
11173;SDS011;5643;50.856;12.088;2023-01-26T06:44:15;15.10;;;11.80;;
11173;SDS011;5643;50.856;12.088;2023-01-26T06:46:44;16.67;;;12.10;;
11173;SDS011;5643;50.856;12.088;2023-01-26T06:49:13;17.60;;;13.00;;
11173;SDS011;5643;50.856;12.088;2023-01-26T06:51:55;17.67;;;13.13;;
11173;SDS011;5643;50.856;12.088;2023-01-26T06:54:24;18.07;;;12.97;;
11173;SDS011;5643;50.856;12.088;2023-01-26T06:56:54;17.73;;;12.87;;
11173;SDS011;5643;50.856;12.088;2023-01-26T06:59:23;16.87;;;12.27;;
11173;SDS011;5643;50.856;12.088;2023-01-26T07:01:52;17.90;;;13.43;;
11173;SDS011;5643;50.856;12.088;2023-01-26T07:04:24;20.50;;;15.00;;
11173;SDS011;5643;50.856;12.088;2023-01-26T07:06:56;21.17;;;15.67;;
11173;SDS011;5643;50.856;12.088;2023-01-26T07:09:25;19.20;;;13.70;;
11173;SDS011;5643;50.856;12.088;2023-01-26T07:11:56;18.23;;;13.40;;
11173;SDS011;5643;50.856;12.088;2023-01-26T07:14:26;16.63;;;12.80;;
11173;SDS011;5643;50.856;12.088;2023-01-26T07:16:55;19.60;;;14.53;;
11173;SDS011;5643;50.856;12.088;2023-01-26T07:19:24;20.00;;;14.53;;
11173;SDS011;5643;50.856;12.088;2023-01-26T07:21:58;19.90;;;14.50;;
11173;SDS011;5643;50.856;12.088;2023-01-26T07:24:27;19.40;;;14.83;;
11173;SDS011;5643;50.856;12.088;2023-01-26T07:26:56;19.27;;;14.10;;
11173;SDS011;5643;50.856;12.088;2023-01-26T07:29:25;18.00;;;13.30;;
11173;SDS011;5643;50.856;12.088;2023-01-26T07:31:55;14.83;;;12.37;;
11173;SDS011;5643;50.856;12.088;2023-01-26T07:34:23;17.57;;;13.80;;
11173;SDS011;5643;50.856;12.088;2023-01-26T07:36:52;16.63;;;12.83;;
11173;SDS011;5643;50.856;12.088;2023-01-26T07:42:08;15.73;;;11.83;;
11173;SDS011;5643;50.856;12.088;2023-01-26T07:44:37;14.27;;;10.70;;
11173;SDS011;5643;50.856;12.088;2023-01-26T07:47:08;12.27;;;9.40;;
11173;SDS011;5643;50.856;12.088;2023-01-26T07:49:40;12.97;;;10.33;;
11173;SDS011;5643;50.856;12.088;2023-01-26T07:52:09;14.40;;;11.13;;
11173;SDS011;5643;50.856;12.088;2023-01-26T07:54:38;13.43;;;10.43;;
11173;SDS011;5643;50.856;12.088;2023-01-26T07:57:17;13.53;;;10.70;;
11173;SDS011;5643;50.856;12.088;2023-01-26T07:59:47;13.13;;;10.43;;
11173;SDS011;5643;50.856;12.088;2023-01-26T08:02:15;13.53;;;11.13;;
11173;SDS011;5643;50.856;12.088;2023-01-26T08:04:45;17.13;;;11.97;;
11173;SDS011;5643;50.856;12.088;2023-01-26T08:07:14;15.17;;;11.73;;
11173;SDS011;5643;50.856;12.088;2023-01-26T08:09:43;16.33;;;12.57;;
11173;SDS011;5643;50.856;12.088;2023-01-26T08:12:16;15.57;;;12.40;;
11173;SDS011;5643;50.856;12.088;2023-01-26T08:14:45;14.50;;;11.27;;
11173;SDS011;5643;50.856;12.088;2023-01-26T09:19:47;10.57;;;9.10;;
11173;SDS011;5643;50.856;12.088;2023-01-26T09:22:19;12.20;;;9.87;;
11173;SDS011;5643;50.856;12.088;2023-01-26T09:24:47;12.07;;;10.30;;
11173;SDS011;5643;50.856;12.088;2023-01-26T09:27:16;14.37;;;11.30;;
11173;SDS011;5643;50.856;12.088;2023-01-26T09:29:46;12.13;;;9.83;;
11173;SDS011;5643;50.856;12.088;2023-01-26T09:32:15;11.77;;;9.80;;
11173;SDS011;5643;50.856;12.088;2023-01-26T09:34:47;10.43;;;9.30;;
11173;SDS011;5643;50.856;12.088;2023-01-26T09:37:17;10.77;;;9.53;;
11173;SDS011;5643;50.856;12.088;2023-01-26T09:39:46;10.63;;;9.47;;
11173;SDS011;5643;50.856;12.088;2023-01-26T09:42:19;10.77;;;9.07;;
11173;SDS011;5643;50.856;12.088;2023-01-26T09:44:58;10.03;;;8.57;;
11173;SDS011;5643;50.856;12.088;2023-01-26T09:47:34;8.27;;;6.90;;
11173;SDS011;5643;50.856;12.088;2023-01-26T09:50:17;9.50;;;8.27;;
11173;SDS011;5643;50.856;12.088;2023-01-26T09:52:49;8.90;;;8.00;;
11173;SDS011;5643;50.856;12.088;2023-01-26T09:55:20;9.73;;;8.23;;
11173;SDS011;5643;50.856;12.088;2023-01-26T09:57:51;7.60;;;6.80;;
11173;SDS011;5643;50.856;12.088;2023-01-26T10:00:21;6.63;;;5.93;;
11173;SDS011;5643;50.856;12.088;2023-01-26T10:03:02;7.00;;;6.00;;
11173;SDS011;5643;50.856;12.088;2023-01-26T10:05:39;5.63;;;5.03;;
11173;SDS011;5643;50.856;12.088;2023-01-26T10:08:10;6.23;;;5.50;;
11173;SDS011;5643;50.856;12.088;2023-01-26T10:10:41;8.40;;;7.37;;
11173;SDS011;5643;50.856;12.088;2023-01-26T10:13:14;7.50;;;6.53;;
11173;SDS011;5643;50.856;12.088;2023-01-26T10:15:46;6.83;;;6.13;;
11173;SDS011;5643;50.856;12.088;2023-01-26T12:20:48;9.53;;;8.53;;
11173;SDS011;5643;50.856;12.088;2023-01-26T12:23:28;9.97;;;8.97;;
11173;SDS011;5643;50.856;12.088;2023-01-26T12:25:59;9.70;;;8.70;;
11173;SDS011;5643;50.856;12.088;2023-01-26T12:28:32;9.40;;;8.43;;
11173;SDS011;5643;50.856;12.088;2023-01-26T12:31:05;9.80;;;8.80;;
11173;SDS011;5643;50.856;12.088;2023-01-26T12:33:36;8.87;;;8.03;;
11173;SDS011;5643;50.856;12.088;2023-01-26T12:36:15;9.30;;;8.40;;
11173;SDS011;5643;50.856;12.088;2023-01-26T12:39:02;9.13;;;8.23;;
11173;SDS011;5643;50.856;12.088;2023-01-26T12:41:37;8.70;;;7.90;;
11173;SDS011;5643;50.856;12.088;2023-01-26T12:44:16;9.13;;;8.23;;
11173;SDS011;5643;50.856;12.088;2023-01-26T12:46:49;8.87;;;7.97;;
11173;SDS011;5643;50.856;12.088;2023-01-26T12:49:21;8.47;;;7.57;;
11173;SDS011;5643;50.856;12.088;2023-01-26T12:52:03;9.57;;;8.57;;
11173;SDS011;5643;50.856;12.088;2023-01-26T12:54:35;9.23;;;8.33;;
11173;SDS011;5643;50.856;12.088;2023-01-26T12:57:08;10.03;;;8.87;;
11173;SDS011;5643;50.856;12.088;2023-01-26T12:59:39;9.13;;;8.23;;
11173;SDS011;5643;50.856;12.088;2023-01-26T13:02:18;9.47;;;8.50;;
11173;SDS011;5643;50.856;12.088;2023-01-26T13:04:50;9.87;;;8.87;;
11173;SDS011;5643;50.856;12.088;2023-01-26T13:07:36;9.53;;;8.53;;
11173;SDS011;5643;50.856;12.088;2023-01-26T13:12:50;9.33;;;8.37;;
11173;SDS011;5643;50.856;12.088;2023-01-26T13:15:22;9.53;;;8.50;;
11173;SDS011;5643;50.856;12.088;2023-01-26T13:17:55;9.27;;;8.37;;
11173;SDS011;5643;50.856;12.088;2023-01-26T14:20:32;9.23;;;8.23;;
11173;SDS011;5643;50.856;12.088;2023-01-26T14:23:07;10.07;;;9.07;;
11173;SDS011;5643;50.856;12.088;2023-01-26T14:25:39;9.90;;;8.90;;
11173;SDS011;5643;50.856;12.088;2023-01-26T14:28:11;10.17;;;9.13;;
11173;SDS011;5643;50.856;12.088;2023-01-26T14:30:42;10.40;;;9.30;;
11173;SDS011;5643;50.856;12.088;2023-01-26T14:33:12;10.37;;;9.00;;
11173;SDS011;5643;50.856;12.088;2023-01-26T14:35:53;11.70;;;10.47;;
11173;SDS011;5643;50.856;12.088;2023-01-26T14:38:22;10.83;;;9.73;;
11173;SDS011;5643;50.856;12.088;2023-01-26T14:40:53;10.93;;;9.80;;
11173;SDS011;5643;50.856;12.088;2023-01-26T14:43:23;11.83;;;10.63;;
11173;SDS011;5643;50.856;12.088;2023-01-26T14:45:54;11.10;;;10.00;;
11173;SDS011;5643;50.856;12.088;2023-01-26T14:48:27;10.20;;;9.17;;
11173;SDS011;5643;50.856;12.088;2023-01-26T14:53:53;10.40;;;9.30;;
11173;SDS011;5643;50.856;12.088;2023-01-26T14:56:26;11.07;;;9.97;;
11173;SDS011;5643;50.856;12.088;2023-01-26T14:58:57;10.83;;;9.73;;
11173;SDS011;5643;50.856;12.088;2023-01-26T15:01:31;10.73;;;9.73;;
11173;SDS011;5643;50.856;12.088;2023-01-26T15:04:00;10.80;;;9.70;;
11173;SDS011;5643;50.856;12.088;2023-01-26T15:06:32;11.00;;;9.90;;
11173;SDS011;5643;50.856;12.088;2023-01-26T15:09:16;11.20;;;10.10;;
11173;SDS011;5643;50.856;12.088;2023-01-26T15:11:53;11.60;;;10.40;;
11173;SDS011;5643;50.856;12.088;2023-01-26T15:14:45;11.30;;;10.10;;
11173;SDS011;5643;50.856;12.088;2023-01-26T15:17:35;11.37;;;10.23;;
11173;SDS011;5643;50.856;12.088;2023-01-26T15:23:19;12.50;;;11.20;;
11173;SDS011;5643;50.856;12.088;2023-01-26T15:26:21;11.33;;;10.13;;
11173;SDS011;5643;50.856;12.088;2023-01-26T15:28:55;12.20;;;11.00;;
11173;SDS011;5643;50.856;12.088;2023-01-26T15:31:27;12.30;;;11.00;;
11173;SDS011;5643;50.856;12.088;2023-01-26T15:33:57;11.73;;;10.50;;
11173;SDS011;5643;50.856;12.088;2023-01-26T15:36:48;12.23;;;10.93;;
11173;SDS011;5643;50.856;12.088;2023-01-26T15:39:18;13.57;;;11.67;;
11173;SDS011;5643;50.856;12.088;2023-01-26T15:42:03;14.27;;;12.03;;
11173;SDS011;5643;50.856;12.088;2023-01-26T15:44:35;12.97;;;11.57;;
11173;SDS011;5643;50.856;12.088;2023-01-26T15:47:06;12.10;;;10.83;;
11173;SDS011;5643;50.856;12.088;2023-01-26T15:49:36;14.00;;;11.83;;
11173;SDS011;5643;50.856;12.088;2023-01-26T15:52:08;12.67;;;11.23;;
11173;SDS011;5643;50.856;12.088;2023-01-26T15:54:39;13.23;;;11.60;;
11173;SDS011;5643;50.856;12.088;2023-01-26T15:57:12;11.40;;;9.93;;
11173;SDS011;5643;50.856;12.088;2023-01-26T15:59:42;11.80;;;10.30;;
11173;SDS011;5643;50.856;12.088;2023-01-26T16:02:12;13.43;;;11.47;;
11173;SDS011;5643;50.856;12.088;2023-01-26T16:04:43;11.90;;;10.50;;
11173;SDS011;5643;50.856;12.088;2023-01-26T16:07:16;11.93;;;10.63;;
11173;SDS011;5643;50.856;12.088;2023-01-26T16:09:46;13.87;;;11.13;;
11173;SDS011;5643;50.856;12.088;2023-01-26T16:12:20;12.90;;;11.20;;
11173;SDS011;5643;50.856;12.088;2023-01-26T16:14:49;12.97;;;11.17;;
11173;SDS011;5643;50.856;12.088;2023-01-26T16:17:18;12.00;;;10.70;;
11173;SDS011;5643;50.856;12.088;2023-01-26T16:19:48;11.93;;;10.50;;
11173;SDS011;5643;50.856;12.088;2023-01-26T16:22:17;13.40;;;11.43;;
11173;SDS011;5643;50.856;12.088;2023-01-26T16:24:45;12.73;;;10.93;;
11173;SDS011;5643;50.856;12.088;2023-01-26T16:27:13;12.93;;;11.57;;
11173;SDS011;5643;50.856;12.088;2023-01-26T16:29:52;13.07;;;11.10;;
11173;SDS011;5643;50.856;12.088;2023-01-26T16:32:25;11.40;;;10.20;;
11173;SDS011;5643;50.856;12.088;2023-01-26T16:34:55;11.93;;;10.67;;
11173;SDS011;5643;50.856;12.088;2023-01-26T16:37:23;12.33;;;10.03;;
11173;SDS011;5643;50.856;12.088;2023-01-26T16:39:52;11.50;;;10.30;;
11173;SDS011;5643;50.856;12.088;2023-01-26T16:42:21;10.20;;;9.17;;
11173;SDS011;5643;50.856;12.088;2023-01-26T16:44:54;10.67;;;9.57;;
11173;SDS011;5643;50.856;12.088;2023-01-26T16:47:23;10.53;;;9.43;;
11173;SDS011;5643;50.856;12.088;2023-01-26T16:49:52;10.57;;;9.47;;
11173;SDS011;5643;50.856;12.088;2023-01-26T16:52:21;10.50;;;9.30;;
11173;SDS011;5643;50.856;12.088;2023-01-26T16:54:50;10.40;;;9.13;;
11173;SDS011;5643;50.856;12.088;2023-01-26T16:57:19;11.20;;;10.00;;
11173;SDS011;5643;50.856;12.088;2023-01-26T16:59:48;10.87;;;9.77;;
11173;SDS011;5643;50.856;12.088;2023-01-26T17:02:23;10.40;;;9.30;;
11173;SDS011;5643;50.856;12.088;2023-01-26T17:04:55;11.33;;;10.20;;
11173;SDS011;5643;50.856;12.088;2023-01-26T17:07:24;10.43;;;9.40;;
11173;SDS011;5643;50.856;12.088;2023-01-26T17:09:53;12.03;;;10.73;;
11173;SDS011;5643;50.856;12.088;2023-01-26T17:12:23;11.93;;;10.70;;
11173;SDS011;5643;50.856;12.088;2023-01-26T17:14:54;12.63;;;10.93;;
11173;SDS011;5643;50.856;12.088;2023-01-26T17:17:27;12.57;;;10.97;;
11173;SDS011;5643;50.856;12.088;2023-01-26T17:19:58;12.17;;;10.33;;
11173;SDS011;5643;50.856;12.088;2023-01-26T17:22:27;11.60;;;10.37;;
11173;SDS011;5643;50.856;12.088;2023-01-26T17:24:55;13.40;;;11.63;;
11173;SDS011;5643;50.856;12.088;2023-01-26T17:27:24;11.33;;;9.93;;
11173;SDS011;5643;50.856;12.088;2023-01-26T17:29:53;14.13;;;11.57;;
11173;SDS011;5643;50.856;12.088;2023-01-26T17:32:22;13.30;;;11.90;;
11173;SDS011;5643;50.856;12.088;2023-01-26T17:34:55;12.70;;;10.77;;
11173;SDS011;5643;50.856;12.088;2023-01-26T17:37:25;11.87;;;10.00;;
11173;SDS011;5643;50.856;12.088;2023-01-26T17:39:55;12.30;;;10.90;;
11173;SDS011;5643;50.856;12.088;2023-01-26T17:42:24;13.37;;;11.57;;
11173;SDS011;5643;50.856;12.088;2023-01-26T17:44:55;11.13;;;9.97;;
11173;SDS011;5643;50.856;12.088;2023-01-26T17:47:24;13.17;;;11.00;;
11173;SDS011;5643;50.856;12.088;2023-01-26T17:49:56;12.10;;;10.53;;
11173;SDS011;5643;50.856;12.088;2023-01-26T17:52:28;11.50;;;9.83;;
11173;SDS011;5643;50.856;12.088;2023-01-26T17:54:59;10.83;;;9.70;;
11173;SDS011;5643;50.856;12.088;2023-01-26T17:57:30;13.57;;;11.53;;
11173;SDS011;5643;50.856;12.088;2023-01-26T18:00:01;12.43;;;11.10;;
11173;SDS011;5643;50.856;12.088;2023-01-26T18:02:30;11.87;;;10.23;;
11173;SDS011;5643;50.856;12.088;2023-01-26T18:05:03;13.17;;;10.87;;
11173;SDS011;5643;50.856;12.088;2023-01-26T18:07:32;13.03;;;11.20;;
11173;SDS011;5643;50.856;12.088;2023-01-26T18:10:01;13.93;;;11.33;;
11173;SDS011;5643;50.856;12.088;2023-01-26T18:12:31;11.90;;;10.07;;
11173;SDS011;5643;50.856;12.088;2023-01-26T18:15:02;11.67;;;10.47;;
11173;SDS011;5643;50.856;12.088;2023-01-26T18:17:32;11.97;;;10.27;;
11173;SDS011;5643;50.856;12.088;2023-01-26T19:22:36;13.73;;;12.13;;
11173;SDS011;5643;50.856;12.088;2023-01-26T19:25:05;17.00;;;13.87;;
11173;SDS011;5643;50.856;12.088;2023-01-26T19:27:34;15.33;;;13.30;;
11173;SDS011;5643;50.856;12.088;2023-01-26T19:30:05;16.60;;;14.03;;
11173;SDS011;5643;50.856;12.088;2023-01-26T19:32:34;15.77;;;13.00;;
11173;SDS011;5643;50.856;12.088;2023-01-26T19:35:23;16.00;;;13.53;;
11173;SDS011;5643;50.856;12.088;2023-01-26T19:37:56;17.57;;;13.70;;
11173;SDS011;5643;50.856;12.088;2023-01-26T19:40:25;15.57;;;12.70;;
11173;SDS011;5643;50.856;12.088;2023-01-26T19:42:52;14.67;;;12.23;;
11173;SDS011;5643;50.856;12.088;2023-01-26T19:45:21;13.50;;;11.17;;
11173;SDS011;5643;50.856;12.088;2023-01-26T19:47:51;12.80;;;10.93;;
11173;SDS011;5643;50.856;12.088;2023-01-26T19:50:19;12.70;;;11.03;;
11173;SDS011;5643;50.856;12.088;2023-01-26T19:52:48;12.67;;;10.80;;
11173;SDS011;5643;50.856;12.088;2023-01-26T19:55:21;13.33;;;11.30;;
11173;SDS011;5643;50.856;12.088;2023-01-26T19:57:50;13.03;;;11.10;;
11173;SDS011;5643;50.856;12.088;2023-01-26T20:00:19;11.63;;;10.10;;
11173;SDS011;5643;50.856;12.088;2023-01-26T20:02:48;11.47;;;10.23;;
11173;SDS011;5643;50.856;12.088;2023-01-26T20:05:17;10.93;;;9.27;;
11173;SDS011;5643;50.856;12.088;2023-01-26T20:07:46;10.53;;;9.03;;
11173;SDS011;5643;50.856;12.088;2023-01-26T20:10:15;10.33;;;8.80;;
11173;SDS011;5643;50.856;12.088;2023-01-26T20:12:48;10.83;;;9.17;;
11173;SDS011;5643;50.856;12.088;2023-01-26T20:15:17;9.67;;;8.60;;
11173;SDS011;5643;50.856;12.088;2023-01-26T20:17:46;9.27;;;8.03;;
11173;SDS011;5643;50.856;12.088;2023-01-26T20:20:15;9.13;;;7.73;;
11173;SDS011;5643;50.856;12.088;2023-01-26T20:22:45;8.73;;;7.47;;
11173;SDS011;5643;50.856;12.088;2023-01-26T20:25:14;8.90;;;7.77;;
11173;SDS011;5643;50.856;12.088;2023-01-26T20:27:43;10.27;;;9.17;;
11173;SDS011;5643;50.856;12.088;2023-01-26T20:30:16;10.60;;;8.97;;
11173;SDS011;5643;50.856;12.088;2023-01-26T20:32:45;11.20;;;8.97;;
11173;SDS011;5643;50.856;12.088;2023-01-26T20:35:16;10.10;;;8.77;;
11173;SDS011;5643;50.856;12.088;2023-01-26T20:37:45;11.30;;;10.10;;
11173;SDS011;5643;50.856;12.088;2023-01-26T20:40:14;11.17;;;9.97;;
11173;SDS011;5643;50.856;12.088;2023-01-26T20:42:43;10.70;;;9.30;;
11173;SDS011;5643;50.856;12.088;2023-01-26T20:45:17;11.53;;;9.63;;
11173;SDS011;5643;50.856;12.088;2023-01-26T20:47:46;10.03;;;8.93;;
11173;SDS011;5643;50.856;12.088;2023-01-26T20:50:15;10.83;;;8.80;;
11173;SDS011;5643;50.856;12.088;2023-01-26T20:52:44;13.60;;;11.27;;
11173;SDS011;5643;50.856;12.088;2023-01-26T20:55:13;13.47;;;9.87;;
11173;SDS011;5643;50.856;12.088;2023-01-26T20:57:42;10.40;;;9.13;;
11173;SDS011;5643;50.856;12.088;2023-01-26T21:00:11;10.90;;;9.43;;
11173;SDS011;5643;50.856;12.088;2023-01-26T21:02:50;10.70;;;9.60;;
11173;SDS011;5643;50.856;12.088;2023-01-26T21:05:20;11.73;;;10.30;;
11173;SDS011;5643;50.856;12.088;2023-01-26T21:07:49;14.33;;;11.57;;
11173;SDS011;5643;50.856;12.088;2023-01-26T21:10:18;14.57;;;11.60;;
11173;SDS011;5643;50.856;12.088;2023-01-26T21:12:48;13.37;;;11.37;;
11173;SDS011;5643;50.856;12.088;2023-01-26T21:15:17;15.00;;;12.87;;
11173;SDS011;5643;50.856;12.088;2023-01-26T21:17:52;14.73;;;11.70;;
11173;SDS011;5643;50.856;12.088;2023-01-26T21:20:21;16.07;;;12.73;;
11173;SDS011;5643;50.856;12.088;2023-01-26T21:22:50;15.07;;;12.27;;
11173;SDS011;5643;50.856;12.088;2023-01-26T21:25:20;15.30;;;12.13;;
11173;SDS011;5643;50.856;12.088;2023-01-26T21:27:49;16.30;;;13.17;;
11173;SDS011;5643;50.856;12.088;2023-01-26T21:30:19;17.53;;;12.13;;
11173;SDS011;5643;50.856;12.088;2023-01-26T21:32:52;15.20;;;12.50;;
11173;SDS011;5643;50.856;12.088;2023-01-26T21:35:22;12.97;;;10.93;;
11173;SDS011;5643;50.856;12.088;2023-01-26T21:37:52;13.20;;;11.07;;
11173;SDS011;5643;50.856;12.088;2023-01-26T21:40:23;12.40;;;10.20;;
11173;SDS011;5643;50.856;12.088;2023-01-26T22:25:40;15.20;;;11.90;;
11173;SDS011;5643;50.856;12.088;2023-01-26T22:28:09;14.70;;;11.57;;
11173;SDS011;5643;50.856;12.088;2023-01-26T22:30:38;13.73;;;10.90;;
11173;SDS011;5643;50.856;12.088;2023-01-26T22:33:07;12.43;;;10.70;;
11173;SDS011;5643;50.856;12.088;2023-01-26T22:35:37;14.57;;;11.30;;
11173;SDS011;5643;50.856;12.088;2023-01-26T22:38:04;14.13;;;11.27;;
11173;SDS011;5643;50.856;12.088;2023-01-26T22:40:33;16.37;;;12.47;;
11173;SDS011;5643;50.856;12.088;2023-01-26T22:43:14;15.97;;;11.83;;
11173;SDS011;5643;50.856;12.088;2023-01-26T22:45:43;14.47;;;10.87;;
11173;SDS011;5643;50.856;12.088;2023-01-26T22:48:12;12.77;;;10.37;;
11173;SDS011;5643;50.856;12.088;2023-01-26T22:50:42;13.03;;;10.13;;
11173;SDS011;5643;50.856;12.088;2023-01-26T22:53:11;14.00;;;11.27;;
11173;SDS011;5643;50.856;12.088;2023-01-26T22:55:40;13.27;;;10.67;;
11173;SDS011;5643;50.856;12.088;2023-01-26T22:58:18;13.30;;;10.70;;
11173;SDS011;5643;50.856;12.088;2023-01-26T23:00:47;12.70;;;10.00;;
11173;SDS011;5643;50.856;12.088;2023-01-26T23:03:19;16.50;;;12.33;;
11173;SDS011;5643;50.856;12.088;2023-01-26T23:05:50;16.93;;;12.53;;
11173;SDS011;5643;50.856;12.088;2023-01-26T23:08:19;13.87;;;10.73;;
11173;SDS011;5643;50.856;12.088;2023-01-26T23:10:48;12.53;;;10.00;;
11173;SDS011;5643;50.856;12.088;2023-01-26T23:13:21;12.43;;;10.30;;
11173;SDS011;5643;50.856;12.088;2023-01-26T23:15:52;14.03;;;10.60;;
11173;SDS011;5643;50.856;12.088;2023-01-26T23:18:21;13.60;;;10.37;;
11173;SDS011;5643;50.856;12.088;2023-01-26T23:20:51;12.73;;;10.20;;
11173;SDS011;5643;50.856;12.088;2023-01-26T23:23:20;12.50;;;10.03;;
11173;SDS011;5643;50.856;12.088;2023-01-26T23:25:50;12.33;;;9.93;;
11173;SDS011;5643;50.856;12.088;2023-01-26T23:28:23;15.60;;;12.43;;
11173;SDS011;5643;50.856;12.088;2023-01-26T23:30:53;18.67;;;14.43;;
11173;SDS011;5643;50.856;12.088;2023-01-26T23:33:23;17.50;;;13.93;;
11173;SDS011;5643;50.856;12.088;2023-01-26T23:35:53;15.93;;;12.77;;
11173;SDS011;5643;50.856;12.088;2023-01-26T23:38:23;18.53;;;13.17;;
11173;SDS011;5643;50.856;12.088;2023-01-26T23:40:52;16.67;;;13.10;;
11173;SDS011;5643;50.856;12.088;2023-01-26T23:43:25;18.07;;;13.37;;
11173;SDS011;5643;50.856;12.088;2023-01-26T23:45:56;18.03;;;13.77;;
11173;SDS011;5643;50.856;12.088;2023-01-26T23:48:25;19.17;;;14.93;;
11173;SDS011;5643;50.856;12.088;2023-01-26T23:50:54;21.40;;;15.83;;
11173;SDS011;5643;50.856;12.088;2023-01-26T23:53:24;19.37;;;14.03;;
11173;SDS011;5643;50.856;12.088;2023-01-26T23:55:54;16.60;;;12.43;;
11173;SDS011;5643;50.856;12.088;2023-01-26T23:58:27;17.07;;;13.07;;
